sensor_id;sensor_type;location;lat;lon;timestamp;pressure;altitude;pressure_sealevel;temperature;humidity
56359;BME280;42611;51.132;13.588;2023-04-27T00:00:01;1019.1;;;0.4;100.0
56359;BME280;42611;51.132;13.588;2023-04-27T00:13:01;1019.1;;;0.3;100.0
56359;BME280;42611;51.132;13.588;2023-04-27T00:15:06;1019.0;;;0.3;100.0
56359;BME280;42611;51.132;13.588;2023-04-27T00:19:01;1019.1;;;0.2;100.0
56359;BME280;42611;51.132;13.588;2023-04-27T00:25:01;1019.0;;;0.1;100.0
56359;BME280;42611;51.132;13.588;2023-04-27T00:30:01;1019.0;;;0.2;100.0
56359;BME280;42611;51.132;13.588;2023-04-27T00:37:01;1019.1;;;0.3;100.0
56359;BME280;42611;51.132;13.588;2023-04-27T00:45:01;1019.1;;;0.3;100.0
56359;BME280;42611;51.132;13.588;2023-04-27T00:49:02;1019.2;;;0.2;100.0
56359;BME280;42611;51.132;13.588;2023-04-27T00:55:01;1019.2;;;0.1;100.0
56359;BME280;42611;51.132;13.588;2023-04-27T01:00:02;1019.2;;;0.1;100.0
56359;BME280;42611;51.132;13.588;2023-04-27T01:31:01;1019.3;;;-0.1;100.0
56359;BME280;42611;51.132;13.588;2023-04-27T01:42:01;1019.3;;;0.1;100.0
56359;BME280;42611;51.132;13.588;2023-04-27T01:44:01;1019.3;;;0.2;100.0
56359;BME280;42611;51.132;13.588;2023-04-27T01:45:01;1019.3;;;0.2;100.0
56359;BME280;42611;51.132;13.588;2023-04-27T01:47:01;1019.3;;;0.3;100.0
56359;BME280;42611;51.132;13.588;2023-04-27T01:52:01;1019.4;;;0.4;100.0
56359;BME280;42611;51.132;13.588;2023-04-27T01:56:01;1019.4;;;0.3;100.0
56359;BME280;42611;51.132;13.588;2023-04-27T02:00:01;1019.5;;;0.3;100.0
56359;BME280;42611;51.132;13.588;2023-04-27T02:01:01;1019.5;;;0.2;100.0
56359;BME280;42611;51.132;13.588;2023-04-27T02:05:01;1019.5;;;0.1;100.0
56359;BME280;42611;51.132;13.588;2023-04-27T02:30:04;1019.6;;;-0.1;100.0
56359;BME280;42611;51.132;13.588;2023-04-27T02:39:01;1019.6;;;-0.2;100.0
56359;BME280;42611;51.132;13.588;2023-04-27T02:42:01;1019.6;;;-0.3;100.0
56359;BME280;42611;51.132;13.588;2023-04-27T02:45:01;1019.6;;;-0.3;100.0
56359;BME280;42611;51.132;13.588;2023-04-27T02:54:01;1019.6;;;-0.2;100.0
56359;BME280;42611;51.132;13.588;2023-04-27T02:58:01;1019.5;;;-0.1;100.0
56359;BME280;42611;51.132;13.588;2023-04-27T03:00:04;1019.5;;;-0.1;100.0
56359;BME280;42611;51.132;13.588;2023-04-27T03:08:01;1019.6;;;0.1;100.0
56359;BME280;42611;51.132;13.588;2023-04-27T03:15:01;1019.7;;;0.1;100.0
56359;BME280;42611;51.132;13.588;2023-04-27T03:34:01;1019.9;;;0.1;100.0
56359;BME280;42611;51.132;13.588;2023-04-27T03:51:02;1020.0;;;0.1;100.0
56359;BME280;42611;51.132;13.588;2023-04-27T03:54:01;1020.1;;;0.2;100.0
56359;BME280;42611;51.132;13.588;2023-04-27T03:59:02;1020.1;;;0.3;100.0
56359;BME280;42611;51.132;13.588;2023-04-27T04:00:01;1020.1;;;0.3;100.0
56359;BME280;42611;51.132;13.588;2023-04-27T04:07:01;1020.2;;;0.2;100.0
56359;BME280;42611;51.132;13.588;2023-04-27T04:10:01;1020.2;;;0.1;100.0
56359;BME280;42611;51.132;13.588;2023-04-27T04:15:02;1020.3;;;-0.1;100.0
56359;BME280;42611;51.132;13.588;2023-04-27T04:17:01;1020.2;;;-0.2;100.0
56359;BME280;42611;51.132;13.588;2023-04-27T04:27:01;1020.3;;;-0.1;100.0
56359;BME280;42611;51.132;13.588;2023-04-27T04:33:01;1020.3;;;0.1;100.0
56359;BME280;42611;51.132;13.588;2023-04-27T04:43:01;1020.4;;;0.2;100.0
56359;BME280;42611;51.132;13.588;2023-04-27T04:45:01;1020.4;;;0.2;100.0
56359;BME280;42611;51.132;13.588;2023-04-27T04:49:01;1020.4;;;0.3;100.0
56359;BME280;42611;51.132;13.588;2023-04-27T04:52:01;1020.4;;;0.4;100.0
56359;BME280;42611;51.132;13.588;2023-04-27T04:54:02;1020.5;;;0.5;100.0
56359;BME280;42611;51.132;13.588;2023-04-27T04:56:09;1020.5;;;0.6;100.0
56359;BME280;42611;51.132;13.588;2023-04-27T05:00:01;1020.5;;;0.6;100.0
56359;BME280;42611;51.132;13.588;2023-04-27T05:06:01;1020.6;;;0.7;100.0
56359;BME280;42611;51.132;13.588;2023-04-27T05:15:01;1020.6;;;0.8;100.0
56359;BME280;42611;51.132;13.588;2023-04-27T05:18:01;1020.6;;;0.9;100.0
56359;BME280;42611;51.132;13.588;2023-04-27T05:20:01;1020.6;;;1.0;100.0
56359;BME280;42611;51.132;13.588;2023-04-27T05:23:01;1020.5;;;1.1;100.0
56359;BME280;42611;51.132;13.588;2023-04-27T05:25:01;1020.5;;;1.2;100.0
56359;BME280;42611;51.132;13.588;2023-04-27T05:27:02;1020.4;;;1.3;100.0
56359;BME280;42611;51.132;13.588;2023-04-27T05:29:01;1020.5;;;1.4;100.0
56359;BME280;42611;51.132;13.588;2023-04-27T05:30:01;1020.5;;;1.4;100.0
56359;BME280;42611;51.132;13.588;2023-04-27T05:31:01;1020.5;;;1.5;100.0
56359;BME280;42611;51.132;13.588;2023-04-27T05:33:02;1020.5;;;1.6;100.0
56359;BME280;42611;51.132;13.588;2023-04-27T05:35:01;1020.5;;;1.7;100.0
56359;BME280;42611;51.132;13.588;2023-04-27T05:37:01;1020.5;;;1.8;100.0
56359;BME280;42611;51.132;13.588;2023-04-27T05:39:01;1020.6;;;1.9;100.0
56359;BME280;42611;51.132;13.588;2023-04-27T05:41:01;1020.5;;;2.0;100.0
56359;BME280;42611;51.132;13.588;2023-04-27T05:43:01;1020.5;;;2.1;100.0
56359;BME280;42611;51.132;13.588;2023-04-27T05:45:01;1020.5;;;2.2;100.0
56359;BME280;42611;51.132;13.588;2023-04-27T05:47:02;1020.5;;;2.3;100.0
56359;BME280;42611;51.132;13.588;2023-04-27T05:48:02;1020.5;;;2.4;100.0
56359;BME280;42611;51.132;13.588;2023-04-27T05:50:01;1020.5;;;2.5;100.0
56359;BME280;42611;51.132;13.588;2023-04-27T05:52:01;1020.5;;;2.6;100.0
56359;BME280;42611;51.132;13.588;2023-04-27T05:54:01;1020.4;;;2.7;100.0
56359;BME280;42611;51.132;13.588;2023-04-27T05:56:01;1020.4;;;2.8;100.0
56359;BME280;42611;51.132;13.588;2023-04-27T05:58:10;1020.4;;;2.9;100.0
56359;BME280;42611;51.132;13.588;2023-04-27T06:00:02;1020.4;;;3.0;100.0
56359;BME280;42611;51.132;13.588;2023-04-27T06:02:01;1020.4;;;3.1;100.0
56359;BME280;42611;51.132;13.588;2023-04-27T06:03:02;1020.4;;;3.2;100.0
56359;BME280;42611;51.132;13.588;2023-04-27T06:05:01;1020.4;;;3.3;100.0
56359;BME280;42611;51.132;13.588;2023-04-27T06:06:01;1020.4;;;3.4;100.0
56359;BME280;42611;51.132;13.588;2023-04-27T06:08:01;1020.4;;;3.5;100.0
56359;BME280;42611;51.132;13.588;2023-04-27T06:10:02;1020.4;;;3.6;100.0
56359;BME280;42611;51.132;13.588;2023-04-27T06:12:02;1020.3;;;3.7;100.0
56359;BME280;42611;51.132;13.588;2023-04-27T06:14:01;1020.3;;;3.8;100.0
56359;BME280;42611;51.132;13.588;2023-04-27T06:15:01;1020.3;;;3.8;100.0
56359;BME280;42611;51.132;13.588;2023-04-27T06:16:01;1020.3;;;3.9;100.0
56359;BME280;42611;51.132;13.588;2023-04-27T06:19:01;1020.4;;;4.0;100.0
56359;BME280;42611;51.132;13.588;2023-04-27T06:21:01;1020.3;;;4.1;100.0
56359;BME280;42611;51.132;13.588;2023-04-27T06:23:01;1020.3;;;4.2;100.0
56359;BME280;42611;51.132;13.588;2023-04-27T06:24:01;1020.3;;;4.3;100.0
56359;BME280;42611;51.132;13.588;2023-04-27T06:26:01;1020.3;;;4.4;100.0
56359;BME280;42611;51.132;13.588;2023-04-27T06:27:01;1020.3;;;4.5;100.0
56359;BME280;42611;51.132;13.588;2023-04-27T06:28:01;1020.3;;;4.6;100.0
56359;BME280;42611;51.132;13.588;2023-04-27T06:30:06;1020.4;;;4.7;100.0
56359;BME280;42611;51.132;13.588;2023-04-27T06:31:01;1020.4;;;4.8;100.0
56359;BME280;42611;51.132;13.588;2023-04-27T06:32:02;1020.4;;;4.9;100.0
56359;BME280;42611;51.132;13.588;2023-04-27T06:33:01;1020.4;;;5.0;100.0
56359;BME280;42611;51.132;13.588;2023-04-27T06:35:01;1020.4;;;5.1;100.0
56359;BME280;42611;51.132;13.588;2023-04-27T06:36:01;1020.4;;;5.2;100.0
56359;BME280;42611;51.132;13.588;2023-04-27T06:38:01;1020.4;;;5.3;100.0
56359;BME280;42611;51.132;13.588;2023-04-27T06:39:01;1020.4;;;5.4;100.0
56359;BME280;42611;51.132;13.588;2023-04-27T06:41:01;1020.4;;;5.5;100.0
56359;BME280;42611;51.132;13.588;2023-04-27T06:42:01;1020.5;;;5.6;100.0
56359;BME280;42611;51.132;13.588;2023-04-27T06:44:01;1020.4;;;5.7;100.0
56359;BME280;42611;51.132;13.588;2023-04-27T06:45:01;1020.3;;;5.7;100.0
56359;BME280;42611;51.132;13.588;2023-04-27T06:46:01;1020.4;;;5.8;100.0
56359;BME280;42611;51.132;13.588;2023-04-27T06:48:01;1020.5;;;5.9;100.0
56359;BME280;42611;51.132;13.588;2023-04-27T06:51:01;1020.4;;;6.0;100.0
56359;BME280;42611;51.132;13.588;2023-04-27T06:52:01;1020.4;;;6.1;100.0
56359;BME280;42611;51.132;13.588;2023-04-27T06:54:01;1020.4;;;6.2;100.0
56359;BME280;42611;51.132;13.588;2023-04-27T06:55:01;1020.4;;;6.3;100.0
56359;BME280;42611;51.132;13.588;2023-04-27T06:56:01;1020.4;;;6.4;100.0
56359;BME280;42611;51.132;13.588;2023-04-27T06:58:01;1020.4;;;6.5;100.0
56359;BME280;42611;51.132;13.588;2023-04-27T06:59:01;1020.3;;;6.6;100.0
56359;BME280;42611;51.132;13.588;2023-04-27T07:00:01;1020.4;;;6.7;100.0
56359;BME280;42611;51.132;13.588;2023-04-27T07:01:01;1020.4;;;6.8;100.0
56359;BME280;42611;51.132;13.588;2023-04-27T07:02:01;1020.4;;;6.9;100.0
56359;BME280;42611;51.132;13.588;2023-04-27T07:03:01;1020.4;;;7.0;100.0
56359;BME280;42611;51.132;13.588;2023-04-27T07:04:02;1020.4;;;7.1;100.0
56359;BME280;42611;51.132;13.588;2023-04-27T07:05:01;1020.4;;;7.2;100.0
56359;BME280;42611;51.132;13.588;2023-04-27T07:07:01;1020.5;;;7.3;100.0
56359;BME280;42611;51.132;13.588;2023-04-27T07:08:09;1020.4;;;7.4;100.0
56359;BME280;42611;51.132;13.588;2023-04-27T07:11:01;1020.5;;;7.5;100.0
56359;BME280;42611;51.132;13.588;2023-04-27T07:13:01;1020.5;;;7.6;100.0
56359;BME280;42611;51.132;13.588;2023-04-27T07:15:01;1020.5;;;7.7;100.0
56359;BME280;42611;51.132;13.588;2023-04-27T07:16:01;1020.5;;;7.8;100.0
56359;BME280;42611;51.132;13.588;2023-04-27T07:18:01;1020.4;;;7.9;100.0
56359;BME280;42611;51.132;13.588;2023-04-27T07:19:01;1020.4;;;8.0;100.0
56359;BME280;42611;51.132;13.588;2023-04-27T07:20:01;1020.5;;;8.1;100.0
56359;BME280;42611;51.132;13.588;2023-04-27T07:21:01;1020.5;;;8.2;100.0
56359;BME280;42611;51.132;13.588;2023-04-27T07:23:01;1020.5;;;8.4;100.0
56359;BME280;42611;51.132;13.588;2023-04-27T07:24:01;1020.5;;;8.5;100.0
56359;BME280;42611;51.132;13.588;2023-04-27T07:25:01;1020.5;;;8.6;100.0
56359;BME280;42611;51.132;13.588;2023-04-27T07:26:01;1020.5;;;8.7;100.0
56359;BME280;42611;51.132;13.588;2023-04-27T07:27:01;1020.5;;;8.8;100.0
56359;BME280;42611;51.132;13.588;2023-04-27T07:28:01;1020.4;;;8.9;100.0
56359;BME280;42611;51.132;13.588;2023-04-27T07:29:26;1020.4;;;9.0;100.0
56359;BME280;42611;51.132;13.588;2023-04-27T07:30:01;1020.5;;;9.1;100.0
56359;BME280;42611;51.132;13.588;2023-04-27T07:31:03;1020.5;;;9.2;100.0
56359;BME280;42611;51.132;13.588;2023-04-27T07:32:01;1020.4;;;9.3;100.0
56359;BME280;42611;51.132;13.588;2023-04-27T07:33:01;1020.5;;;9.4;100.0
56359;BME280;42611;51.132;13.588;2023-04-27T07:34:01;1020.5;;;9.5;100.0
56359;BME280;42611;51.132;13.588;2023-04-27T07:35:01;1020.5;;;9.6;100.0
56359;BME280;42611;51.132;13.588;2023-04-27T07:36:01;1020.5;;;9.7;100.0
56359;BME280;42611;51.132;13.588;2023-04-27T07:38:01;1020.5;;;9.8;100.0
56359;BME280;42611;51.132;13.588;2023-04-27T07:39:01;1020.5;;;9.9;100.0
56359;BME280;42611;51.132;13.588;2023-04-27T07:40:01;1020.5;;;10.0;100.0
56359;BME280;42611;51.132;13.588;2023-04-27T07:41:01;1020.5;;;10.1;100.0
56359;BME280;42611;51.132;13.588;2023-04-27T07:42:01;1020.5;;;10.2;100.0
56359;BME280;42611;51.132;13.588;2023-04-27T07:43:01;1020.4;;;10.3;100.0
56359;BME280;42611;51.132;13.588;2023-04-27T07:44:01;1020.5;;;10.4;100.0
56359;BME280;42611;51.132;13.588;2023-04-27T07:45:01;1020.4;;;10.5;100.0
56359;BME280;42611;51.132;13.588;2023-04-27T07:46:01;1020.4;;;10.6;100.0
56359;BME280;42611;51.132;13.588;2023-04-27T07:47:01;1020.4;;;10.7;100.0
56359;BME280;42611;51.132;13.588;2023-04-27T07:49:01;1020.5;;;10.8;100.0
56359;BME280;42611;51.132;13.588;2023-04-27T07:50:01;1020.5;;;10.9;100.0
56359;BME280;42611;51.132;13.588;2023-04-27T07:51:01;1020.5;;;11.0;100.0
56359;BME280;42611;51.132;13.588;2023-04-27T07:52:01;1020.5;;;11.1;100.0
56359;BME280;42611;51.132;13.588;2023-04-27T07:53:01;1020.5;;;11.2;100.0
56359;BME280;42611;51.132;13.588;2023-04-27T07:54:01;1020.6;;;11.3;100.0
56359;BME280;42611;51.132;13.588;2023-04-27T07:55:01;1020.5;;;11.4;100.0
56359;BME280;42611;51.132;13.588;2023-04-27T07:57:06;1020.5;;;11.5;100.0
56359;BME280;42611;51.132;13.588;2023-04-27T08:00:02;1020.5;;;11.6;100.0
56359;BME280;42611;51.132;13.588;2023-04-27T08:02:16;1020.6;;;11.7;100.0
56359;BME280;42611;51.132;13.588;2023-04-27T08:05:03;1020.7;;;11.8;100.0
56359;BME280;42611;51.132;13.588;2023-04-27T08:07:03;1020.7;;;11.9;100.0
56359;BME280;42611;51.132;13.588;2023-04-27T08:08:02;1020.7;;;12.0;100.0
56359;BME280;42611;51.132;13.588;2023-04-27T08:10:01;1020.7;;;12.1;100.0
56359;BME280;42611;51.132;13.588;2023-04-27T08:11:01;1020.6;;;12.2;100.0
56359;BME280;42611;51.132;13.588;2023-04-27T08:12:01;1020.6;;;12.3;100.0
56359;BME280;42611;51.132;13.588;2023-04-27T08:13:01;1020.5;;;12.4;100.0
56359;BME280;42611;51.132;13.588;2023-04-27T08:14:01;1020.5;;;12.5;100.0
56359;BME280;42611;51.132;13.588;2023-04-27T08:15:01;1020.6;;;12.6;96.6
56359;BME280;42611;51.132;13.588;2023-04-27T08:16:01;1020.6;;;12.7;98.9
56359;BME280;42611;51.132;13.588;2023-04-27T08:17:01;1020.6;;;12.9;96.1
56359;BME280;42611;51.132;13.588;2023-04-27T08:18:01;1020.6;;;13.1;94.0
56359;BME280;42611;51.132;13.588;2023-04-27T08:19:01;1020.7;;;13.3;86.6
56359;BME280;42611;51.132;13.588;2023-04-27T08:20:01;1020.7;;;13.5;84.7
56359;BME280;42611;51.132;13.588;2023-04-27T08:21:01;1020.6;;;13.7;82.7
56359;BME280;42611;51.132;13.588;2023-04-27T08:22:01;1020.6;;;13.8;80.3
56359;BME280;42611;51.132;13.588;2023-04-27T08:23:01;1020.6;;;14.0;77.2
56359;BME280;42611;51.132;13.588;2023-04-27T08:24:01;1020.5;;;14.2;79.9
56359;BME280;42611;51.132;13.588;2023-04-27T08:25:01;1020.6;;;14.3;77.3
56359;BME280;42611;51.132;13.588;2023-04-27T08:26:01;1020.5;;;14.5;76.2
56359;BME280;42611;51.132;13.588;2023-04-27T08:27:01;1020.5;;;14.7;76.3
56359;BME280;42611;51.132;13.588;2023-04-27T08:28:01;1020.6;;;14.8;73.5
56359;BME280;42611;51.132;13.588;2023-04-27T08:29:27;1020.5;;;15.0;75.7
56359;BME280;42611;51.132;13.588;2023-04-27T08:30:01;1020.5;;;15.1;72.0
56359;BME280;42611;51.132;13.588;2023-04-27T08:31:01;1020.5;;;15.3;73.1
56359;BME280;42611;51.132;13.588;2023-04-27T08:32:01;1020.5;;;15.4;74.4
56359;BME280;42611;51.132;13.588;2023-04-27T08:33:01;1020.4;;;15.5;72.7
56359;BME280;42611;51.132;13.588;2023-04-27T08:34:01;1020.5;;;15.6;71.1
56359;BME280;42611;51.132;13.588;2023-04-27T08:36:01;1020.4;;;15.7;69.9
56359;BME280;42611;51.132;13.588;2023-04-27T08:37:01;1020.5;;;15.6;66.7
56359;BME280;42611;51.132;13.588;2023-04-27T08:39:01;1020.4;;;15.5;71.6
56359;BME280;42611;51.132;13.588;2023-04-27T08:40:03;1020.4;;;15.3;72.4
56359;BME280;42611;51.132;13.588;2023-04-27T08:41:17;1020.4;;;15.2;72.4
56359;BME280;42611;51.132;13.588;2023-04-27T08:42:08;1020.4;;;15.0;74.1
56359;BME280;42611;51.132;13.588;2023-04-27T08:43:01;1020.3;;;14.9;78.1
56359;BME280;42611;51.132;13.588;2023-04-27T08:44:01;1020.3;;;14.7;75.3
56359;BME280;42611;51.132;13.588;2023-04-27T08:45:01;1020.3;;;14.5;77.2
56359;BME280;42611;51.132;13.588;2023-04-27T08:46:01;1020.4;;;14.4;76.1
56359;BME280;42611;51.132;13.588;2023-04-27T08:47:02;1020.4;;;14.2;74.9
56359;BME280;42611;51.132;13.588;2023-04-27T08:48:01;1020.3;;;14.1;77.5
56359;BME280;42611;51.132;13.588;2023-04-27T08:49:01;1020.4;;;13.9;77.3
56359;BME280;42611;51.132;13.588;2023-04-27T08:50:02;1020.4;;;13.8;74.3
56359;BME280;42611;51.132;13.588;2023-04-27T08:51:01;1020.4;;;13.7;75.5
56359;BME280;42611;51.132;13.588;2023-04-27T08:52:01;1020.4;;;13.6;73.7
56359;BME280;42611;51.132;13.588;2023-04-27T08:54:01;1020.4;;;13.7;75.2
56359;BME280;42611;51.132;13.588;2023-04-27T08:56:02;1020.3;;;13.8;75.6
56359;BME280;42611;51.132;13.588;2023-04-27T09:00:01;1020.3;;;13.8;74.5
56359;BME280;42611;51.132;13.588;2023-04-27T09:03:01;1020.4;;;13.7;74.7
56359;BME280;42611;51.132;13.588;2023-04-27T09:04:02;1020.5;;;13.6;73.8
56359;BME280;42611;51.132;13.588;2023-04-27T09:05:02;1020.4;;;13.5;76.4
56359;BME280;42611;51.132;13.588;2023-04-27T09:06:06;1020.4;;;13.4;76.9
56359;BME280;42611;51.132;13.588;2023-04-27T09:07:08;1020.3;;;13.2;79.7
56359;BME280;42611;51.132;13.588;2023-04-27T09:08:02;1020.4;;;13.1;80.8
56359;BME280;42611;51.132;13.588;2023-04-27T09:09:01;1020.3;;;12.9;81.4
56359;BME280;42611;51.132;13.588;2023-04-27T09:10:02;1020.4;;;12.8;81.6
56359;BME280;42611;51.132;13.588;2023-04-27T09:11:01;1020.4;;;12.7;79.9
56359;BME280;42611;51.132;13.588;2023-04-27T09:12:11;1020.4;;;12.6;80.8
56359;BME280;42611;51.132;13.588;2023-04-27T09:13:01;1020.4;;;12.4;75.9
56359;BME280;42611;51.132;13.588;2023-04-27T09:14:02;1020.4;;;12.3;76.0
56359;BME280;42611;51.132;13.588;2023-04-27T09:15:02;1020.4;;;12.2;79.7
56359;BME280;42611;51.132;13.588;2023-04-27T09:16:01;1020.4;;;12.1;80.0
56359;BME280;42611;51.132;13.588;2023-04-27T09:18:01;1020.3;;;12.0;80.5
56359;BME280;42611;51.132;13.588;2023-04-27T09:21:06;1020.3;;;12.1;78.0
56359;BME280;42611;51.132;13.588;2023-04-27T09:30:10;1020.3;;;12.1;75.5
56359;BME280;42611;51.132;13.588;2023-04-27T09:35:01;1020.3;;;12.0;72.9
56359;BME280;42611;51.132;13.588;2023-04-27T09:38:01;1020.3;;;11.9;71.7
56359;BME280;42611;51.132;13.588;2023-04-27T09:40:01;1020.2;;;11.8;74.4
56359;BME280;42611;51.132;13.588;2023-04-27T09:42:01;1020.2;;;11.7;73.8
56359;BME280;42611;51.132;13.588;2023-04-27T09:43:01;1020.2;;;11.6;73.4
56359;BME280;42611;51.132;13.588;2023-04-27T09:45:01;1020.1;;;11.5;77.5
56359;BME280;42611;51.132;13.588;2023-04-27T09:57:04;1020.1;;;11.6;75.5
56359;BME280;42611;51.132;13.588;2023-04-27T09:58:14;1020.2;;;11.7;75.5
56359;BME280;42611;51.132;13.588;2023-04-27T09:59:20;1020.1;;;11.8;72.2
56359;BME280;42611;51.132;13.588;2023-04-27T10:01:09;1020.2;;;11.8;67.7
56359;BME280;42611;51.132;13.588;2023-04-27T10:02:06;1020.1;;;11.9;72.1
56359;BME280;42611;51.132;13.588;2023-04-27T10:02:26;1020.2;;;12.0;65.6
56359;BME280;42611;51.132;13.588;2023-04-27T10:05:07;1020.1;;;12.2;60.2
56359;BME280;42611;51.132;13.588;2023-04-27T10:07:03;1020.0;;;12.3;63.1
56359;BME280;42611;51.132;13.588;2023-04-27T10:08:02;1020.2;;;12.4;58.7
56359;BME280;42611;51.132;13.588;2023-04-27T10:09:02;1020.1;;;12.5;61.1
56359;BME280;42611;51.132;13.588;2023-04-27T10:10:01;1020.0;;;12.6;63.8
56359;BME280;42611;51.132;13.588;2023-04-27T10:11:11;1020.2;;;12.7;58.0
56359;BME280;42611;51.132;13.588;2023-04-27T10:12:34;1020.1;;;12.8;63.3
56359;BME280;42611;51.132;13.588;2023-04-27T10:14:04;1020.1;;;12.9;61.5
56359;BME280;42611;51.132;13.588;2023-04-27T10:15:17;1020.1;;;12.9;64.2
56359;BME280;42611;51.132;13.588;2023-04-27T10:20:02;1020.1;;;12.8;61.6
56359;BME280;42611;51.132;13.588;2023-04-27T10:22:01;1020.2;;;12.7;61.3
56359;BME280;42611;51.132;13.588;2023-04-27T10:23:01;1020.2;;;12.6;63.1
56359;BME280;42611;51.132;13.588;2023-04-27T10:25:11;1020.1;;;12.5;63.8
56359;BME280;42611;51.132;13.588;2023-04-27T10:26:05;1020.2;;;12.4;62.7
56359;BME280;42611;51.132;13.588;2023-04-27T10:27:05;1020.2;;;12.3;65.1
56359;BME280;42611;51.132;13.588;2023-04-27T10:28:01;1020.1;;;12.2;64.6
56359;BME280;42611;51.132;13.588;2023-04-27T10:29:05;1020.1;;;12.1;66.1
56359;BME280;42611;51.132;13.588;2023-04-27T10:30:07;1020.1;;;12.0;67.7
56359;BME280;42611;51.132;13.588;2023-04-27T10:31:08;1020.1;;;11.9;65.5
56359;BME280;42611;51.132;13.588;2023-04-27T10:32:04;1020.1;;;11.8;67.2
56359;BME280;42611;51.132;13.588;2023-04-27T10:35:03;1020.2;;;11.7;66.7
56359;BME280;42611;51.132;13.588;2023-04-27T10:40:03;1020.1;;;11.8;67.4
56359;BME280;42611;51.132;13.588;2023-04-27T10:42:01;1020.0;;;11.9;68.6
56359;BME280;42611;51.132;13.588;2023-04-27T10:45:01;1020.0;;;12.0;67.4
56359;BME280;42611;51.132;13.588;2023-04-27T10:47:17;1020.1;;;12.1;67.0
56359;BME280;42611;51.132;13.588;2023-04-27T10:49:01;1020.1;;;12.2;64.5
56359;BME280;42611;51.132;13.588;2023-04-27T10:52:01;1020.0;;;12.3;63.3
56359;BME280;42611;51.132;13.588;2023-04-27T10:56:01;1020.1;;;12.4;65.3
56359;BME280;42611;51.132;13.588;2023-04-27T10:59:04;1020.0;;;12.5;65.6
56359;BME280;42611;51.132;13.588;2023-04-27T11:00:01;1020.0;;;12.5;63.2
56359;BME280;42611;51.132;13.588;2023-04-27T11:02:01;1020.0;;;12.6;64.8
56359;BME280;42611;51.132;13.588;2023-04-27T11:06:02;1020.0;;;12.7;63.2
56359;BME280;42611;51.132;13.588;2023-04-27T11:07:01;1020.0;;;12.8;62.9
56359;BME280;42611;51.132;13.588;2023-04-27T11:09:01;1020.1;;;12.9;60.6
56359;BME280;42611;51.132;13.588;2023-04-27T11:15:01;1020.1;;;12.9;59.6
56359;BME280;42611;51.132;13.588;2023-04-27T11:17:01;1020.2;;;12.8;60.8
56359;BME280;42611;51.132;13.588;2023-04-27T11:19:04;1020.1;;;12.7;62.0
56359;BME280;42611;51.132;13.588;2023-04-27T11:21:05;1020.0;;;12.6;62.9
56359;BME280;42611;51.132;13.588;2023-04-27T11:23:01;1020.0;;;12.5;61.7
56359;BME280;42611;51.132;13.588;2023-04-27T11:26:33;1020.1;;;12.4;58.2
56359;BME280;42611;51.132;13.588;2023-04-27T11:30:01;1020.1;;;12.4;58.4
56359;BME280;42611;51.132;13.588;2023-04-27T11:38:01;1020.1;;;12.5;63.9
56359;BME280;42611;51.132;13.588;2023-04-27T11:42:18;1020.1;;;12.6;64.5
56359;BME280;42611;51.132;13.588;2023-04-27T11:45:03;1020.1;;;12.7;64.2
56359;BME280;42611;51.132;13.588;2023-04-27T11:46:02;1020.1;;;12.8;64.8
56359;BME280;42611;51.132;13.588;2023-04-27T11:47:01;1020.2;;;12.9;63.7
56359;BME280;42611;51.132;13.588;2023-04-27T11:48:01;1020.1;;;13.0;64.0
56359;BME280;42611;51.132;13.588;2023-04-27T11:49:01;1020.2;;;13.1;61.1
56359;BME280;42611;51.132;13.588;2023-04-27T11:50:02;1020.1;;;13.2;62.9
56359;BME280;42611;51.132;13.588;2023-04-27T11:52:01;1020.3;;;13.3;57.8
56359;BME280;42611;51.132;13.588;2023-04-27T11:53:01;1020.2;;;13.4;60.9
56359;BME280;42611;51.132;13.588;2023-04-27T11:57:03;1020.2;;;13.3;60.8
56359;BME280;42611;51.132;13.588;2023-04-27T11:59:01;1020.2;;;13.2;61.3
56359;BME280;42611;51.132;13.588;2023-04-27T12:00:02;1020.1;;;13.1;64.2
56359;BME280;42611;51.132;13.588;2023-04-27T12:02:01;1020.2;;;13.0;61.8
56359;BME280;42611;51.132;13.588;2023-04-27T12:04:04;1020.2;;;12.9;60.0
56359;BME280;42611;51.132;13.588;2023-04-27T12:05:02;1020.3;;;12.8;62.1
56359;BME280;42611;51.132;13.588;2023-04-27T12:06:16;1020.1;;;12.7;65.0
56359;BME280;42611;51.132;13.588;2023-04-27T12:08:01;1020.2;;;12.6;63.1
56359;BME280;42611;51.132;13.588;2023-04-27T12:09:01;1020.2;;;12.5;64.0
56359;BME280;42611;51.132;13.588;2023-04-27T12:13:01;1020.3;;;12.6;60.0
56359;BME280;42611;51.132;13.588;2023-04-27T12:14:01;1020.1;;;12.7;64.1
56359;BME280;42611;51.132;13.588;2023-04-27T12:15:01;1020.2;;;12.7;61.0
56359;BME280;42611;51.132;13.588;2023-04-27T12:16:01;1020.2;;;12.8;58.7
56359;BME280;42611;51.132;13.588;2023-04-27T12:19:01;1020.2;;;12.9;59.9
56359;BME280;42611;51.132;13.588;2023-04-27T12:20:01;1020.2;;;13.0;61.7
56359;BME280;42611;51.132;13.588;2023-04-27T12:22:01;1020.2;;;13.1;61.9
56359;BME280;42611;51.132;13.588;2023-04-27T12:23:01;1020.2;;;13.2;63.0
56359;BME280;42611;51.132;13.588;2023-04-27T12:24:01;1020.3;;;13.3;60.4
56359;BME280;42611;51.132;13.588;2023-04-27T12:26:01;1020.3;;;13.4;60.3
56359;BME280;42611;51.132;13.588;2023-04-27T12:27:01;1020.3;;;13.5;59.4
56359;BME280;42611;51.132;13.588;2023-04-27T12:30:01;1020.2;;;13.5;59.9
56359;BME280;42611;51.132;13.588;2023-04-27T12:31:02;1020.2;;;13.6;60.6
56359;BME280;42611;51.132;13.588;2023-04-27T12:36:01;1020.3;;;13.5;57.2
56359;BME280;42611;51.132;13.588;2023-04-27T12:37:01;1020.3;;;13.4;60.6
56359;BME280;42611;51.132;13.588;2023-04-27T12:39:17;1020.2;;;13.3;58.6
56359;BME280;42611;51.132;13.588;2023-04-27T12:40:01;1020.2;;;13.2;61.0
56359;BME280;42611;51.132;13.588;2023-04-27T12:41:01;1020.2;;;13.1;62.0
56359;BME280;42611;51.132;13.588;2023-04-27T12:44:01;1020.2;;;13.0;61.7
56359;BME280;42611;51.132;13.588;2023-04-27T12:45:01;1020.2;;;13.0;63.1
56359;BME280;42611;51.132;13.588;2023-04-27T12:47:01;1020.3;;;12.9;58.5
56359;BME280;42611;51.132;13.588;2023-04-27T12:51:01;1020.3;;;13.0;60.4
56359;BME280;42611;51.132;13.588;2023-04-27T12:53:01;1020.2;;;13.1;59.3
56359;BME280;42611;51.132;13.588;2023-04-27T12:55:01;1020.3;;;13.2;55.9
56359;BME280;42611;51.132;13.588;2023-04-27T12:57:01;1020.2;;;13.3;57.7
56359;BME280;42611;51.132;13.588;2023-04-27T12:59:01;1020.2;;;13.4;59.5
56359;BME280;42611;51.132;13.588;2023-04-27T13:00:02;1020.3;;;13.4;57.1
56359;BME280;42611;51.132;13.588;2023-04-27T13:04:02;1020.2;;;13.5;60.0
56359;BME280;42611;51.132;13.588;2023-04-27T13:11:02;1020.1;;;13.6;60.7
56359;BME280;42611;51.132;13.588;2023-04-27T13:15:01;1020.2;;;13.6;61.1
56359;BME280;42611;51.132;13.588;2023-04-27T13:20:01;1020.2;;;13.5;57.2
56359;BME280;42611;51.132;13.588;2023-04-27T13:22:01;1020.1;;;13.4;59.2
56359;BME280;42611;51.132;13.588;2023-04-27T13:30:01;1020.2;;;13.4;59.2
56359;BME280;42611;51.132;13.588;2023-04-27T13:31:01;1020.1;;;13.5;62.0